Time;durP1;ratioP1;P1;durP2;ratioP2;P2;SDS_P1;SDS_P2;PMS_P1;PMS_P2;Temp;Humidity;BMP_temperature;BMP_pressure;BME280_temperature;BME280_humidity;BME280_pressure;Samples;Min_cycle;Max_cycle;Signal;HPM_P1;HPM_P2
2021/01/09 00:00:57;;;;;;;;;2.00;2.00;21.40;79.00;;;20.13;57.64;102346.50;5030090;28;8797;-65
2021/01/09 00:03:24;;;;;;;;;2.60;2.40;21.40;79.20;;;20.15;57.88;102352.59;5039176;28;8813;-63
2021/01/09 00:05:55;;;;;;;;;2.80;2.80;21.40;79.40;;;20.16;57.95;102361.50;5038723;28;8890;-66
2021/01/09 00:08:22;;;;;;;;;2.00;2.00;21.40;79.30;;;20.15;57.85;102360.63;5037941;28;8838;-66
2021/01/09 00:10:50;;;;;;;;;2.80;2.00;21.40;79.50;;;20.17;57.85;102363.19;5035326;28;8815;-65
2021/01/09 00:13:17;;;;;;;;;2.00;2.00;21.40;79.50;;;20.20;57.85;102354.03;5035221;28;8816;-65
2021/01/09 00:15:44;;;;;;;;;2.00;2.00;21.40;79.60;;;20.20;57.96;102370.13;5015567;28;8807;-64
2021/01/09 00:18:11;;;;;;;;;1.20;1.20;21.40;79.60;;;20.21;57.90;102366.47;5016606;28;9599;-65
2021/01/09 00:20:38;;;;;;;;;1.80;1.80;21.40;79.70;;;20.20;57.94;102364.75;5015811;28;8852;-66
2021/01/09 00:23:05;;;;;;;;;3.60;2.60;21.40;79.70;;;20.20;57.99;102370.13;5017763;28;8866;-66
2021/01/09 00:25:31;;;;;;;;;5.20;3.00;21.40;79.70;;;20.20;57.88;102378.19;5003381;28;8806;-64
2021/01/09 00:27:58;;;;;;;;;1.80;1.80;21.40;79.80;;;20.19;58.00;102382.69;5005100;28;8807;-64
2021/01/09 00:30:25;;;;;;;;;2.00;2.00;21.40;80.00;;;20.21;58.05;102383.44;5004930;28;8842;-64
2021/01/09 00:32:52;;;;;;;;;1.60;1.00;21.40;79.80;;;20.18;58.01;102383.69;4996560;28;8831;-67
2021/01/09 00:35:19;;;;;;;;;2.60;2.00;21.40;79.90;;;20.14;58.04;102380.38;4998064;28;8779;-65
2021/01/09 00:37:45;;;;;;;;;2.20;1.40;21.40;79.60;;;20.13;58.04;102384.06;5000511;28;8795;-63
2021/01/09 00:40:13;;;;;;;;;2.00;2.00;21.40;79.40;;;20.11;58.01;102377.97;4998028;28;8808;-64
2021/01/09 00:42:41;;;;;;;;;1.80;1.80;21.40;79.30;;;20.09;57.93;102373.69;5005765;28;8835;-65
2021/01/09 00:45:09;;;;;;;;;2.40;2.00;21.40;79.30;;;20.07;57.88;102378.31;4995001;28;8796;-65
2021/01/09 00:47:36;;;;;;;;;3.00;3.00;21.40;79.10;;;20.07;57.97;102375.63;4994329;28;8902;-65
2021/01/09 00:50:05;;;;;;;;;3.20;1.80;21.40;79.10;;;20.05;57.85;102374.91;5012104;28;8812;-65
2021/01/09 00:52:32;;;;;;;;;1.00;1.00;21.40;78.90;;;20.03;57.83;102375.06;4995686;28;8796;-65
2021/01/09 00:54:59;;;;;;;;;2.80;2.80;21.50;78.90;;;20.04;57.71;102367.84;4987250;28;8807;-63
2021/01/09 00:57:26;;;;;;;;;3.20;3.20;21.40;78.80;;;20.04;57.78;102373.22;4993428;28;8942;-65
2021/01/09 00:59:53;;;;;;;;;3.00;3.00;21.40;78.70;;;20.06;57.57;102368.59;5000783;28;8928;-67
2021/01/09 01:02:20;;;;;;;;;1.40;1.20;21.50;78.60;;;20.08;57.60;102380.91;4993684;28;8861;-66
2021/01/09 01:04:48;;;;;;;;;2.00;2.00;21.50;78.70;;;20.07;57.60;102381.84;5009459;28;9536;-66
2021/01/09 01:07:15;;;;;;;;;3.40;2.20;21.40;78.60;;;20.07;57.37;102379.16;4995312;28;8811;-67
2021/01/09 01:09:42;;;;;;;;;5.00;4.00;21.50;78.80;;;20.07;57.45;102387.22;4995563;28;8908;-66
2021/01/09 01:12:09;;;;;;;;;3.20;2.60;21.40;78.70;;;20.07;57.43;102387.22;5000409;28;8911;-65
2021/01/09 01:14:36;;;;;;;;;1.80;1.80;21.50;78.70;;;20.09;57.71;102398.69;5023809;28;8766;-66
2021/01/09 01:17:04;;;;;;;;;1.40;1.40;21.40;78.60;;;20.08;59.90;102399.69;5028593;28;8786;-67
2021/01/09 01:19:30;;;;;;;;;2.60;2.60;21.40;86.10;;;20.07;57.67;102403.31;5033301;28;9480;-63
2021/01/09 01:21:57;;;;;;;;;2.00;2.00;21.50;78.40;;;20.08;57.66;102402.34;5032236;28;9537;-62
2021/01/09 01:24:24;;;;;;;;;2.00;2.00;21.70;78.20;;;20.07;57.59;102397.94;5028421;28;8828;-65
2021/01/09 01:26:51;;;;;;;;;2.60;2.60;21.70;77.80;;;20.07;57.58;102405.16;5031213;28;8875;-64
2021/01/09 01:29:18;;;;;;;;;2.20;2.20;21.70;77.60;;;20.07;57.70;102418.56;5032277;28;8774;-62
2021/01/09 01:31:45;;;;;;;;;4.00;4.00;21.70;77.50;;;20.06;57.58;102406.13;5031029;28;8804;-64
2021/01/09 01:34:11;;;;;;;;;1.00;1.00;21.80;77.50;;;20.05;57.43;102407.97;5031587;28;8790;-64
2021/01/09 01:36:38;;;;;;;;;1.80;1.80;21.70;77.50;;;20.03;57.50;102415.28;5026181;28;8810;-64
2021/01/09 01:39:05;;;;;;;;;3.80;3.60;21.80;77.50;;;20.02;57.50;102396.63;5032479;28;8806;-64
2021/01/09 01:41:32;;;;;;;;;2.60;2.00;21.70;77.50;;;20.03;57.64;102407.25;5030377;28;9534;-65
2021/01/09 01:43:59;;;;;;;;;1.80;1.80;21.70;77.60;;;20.01;57.52;102405.66;5031818;28;8809;-66
2021/01/09 01:46:26;;;;;;;;;2.00;2.00;21.70;77.70;;;20.01;57.67;102403.81;5032466;28;8802;-67
2021/01/09 01:48:53;;;;;;;;;2.60;2.00;21.70;77.80;;;19.99;57.70;102402.25;5029847;28;8822;-63
2021/01/09 01:51:20;;;;;;;;;2.60;2.60;21.60;77.80;;;19.97;57.90;102406.88;5030814;28;8829;-64
2021/01/09 01:53:47;;;;;;;;;1.00;1.00;21.60;77.90;;;19.93;58.10;102415.16;5012913;28;8829;-65
2021/01/09 01:56:14;;;;;;;;;1.00;1.00;21.60;78.00;;;19.94;58.02;102416.00;5034327;28;9483;-65
2021/01/09 01:58:41;;;;;;;;;3.20;2.60;21.60;78.00;;;19.92;58.09;102417.97;5030148;28;8848;-66
2021/01/09 02:01:10;;;;;;;;;1.00;1.00;21.60;78.20;;;19.90;57.96;102423.47;5011132;28;8943;-64
2021/01/09 02:03:37;;;;;;;;;2.60;2.00;21.60;78.20;;;19.90;58.42;102419.94;5010331;28;8786;-65
2021/01/09 02:06:23;;;;;;;;;1.40;1.40;21.60;78.30;;;19.89;58.44;102428.94;5027678;28;9510;-66
2021/01/09 02:09:05;;;;;;;;;2.20;2.20;21.60;78.30;;;19.86;58.26;102427.34;5043363;28;8830;-65
2021/01/09 02:11:42;;;;;;;;;3.80;2.80;21.50;78.30;;;19.82;58.50;102428.59;5006178;28;8862;-65
2021/01/09 02:14:43;;;;;;;;;6.00;2.00;21.50;78.30;;;19.80;58.40;102424.31;5027047;28;8852;-67
2021/01/09 02:17:12;;;;;;;;;2.60;2.60;21.50;78.20;;;19.78;58.50;102426.28;5015161;28;8806;-64
2021/01/09 02:19:41;;;;;;;;;2.60;2.00;21.40;78.30;;;19.77;58.45;102429.91;5009587;28;8794;-64
2021/01/09 02:22:18;;;;;;;;;4.00;3.40;21.40;78.10;;;19.75;58.40;102432.72;5028659;28;8805;-64
2021/01/09 02:24:47;;;;;;;;;2.40;2.40;21.40;78.00;;;19.73;58.26;102429.31;5030243;28;8856;-64
2021/01/09 02:27:14;;;;;;;;;3.00;2.00;21.40;77.80;;;19.72;58.26;102431.16;5031689;28;8766;-64
2021/01/09 02:30:08;;;;;;;;;2.60;2.00;21.50;77.80;;;19.71;58.18;102431.25;5030762;28;8803;-64
2021/01/09 02:33:03;;;;;;;;;4.20;2.60;21.40;77.80;;;19.68;58.13;102436.84;5014971;28;8818;-64
2021/01/09 02:35:34;;;;;;;;;3.00;3.00;21.40;77.70;;;19.67;58.17;102438.69;5029952;28;8798;-64
2021/01/09 02:38:01;;;;;;;;;3.00;3.00;21.40;77.70;;;19.65;58.26;102439.75;5030537;28;8813;-64
2021/01/09 02:40:28;;;;;;;;;3.00;2.00;21.40;77.60;;;19.65;58.26;102443.28;5015519;28;8772;-64
2021/01/09 02:42:55;;;;;;;;;2.40;2.00;21.40;77.60;;;19.64;58.22;102451.44;5030935;28;8810;-64
2021/01/09 02:45:21;;;;;;;;;1.50;1.50;21.40;77.60;;;19.62;58.29;102454.25;5031785;28;8877;-64
2021/01/09 02:47:48;;;;;;;;;3.00;3.00;21.40;77.60;;;19.61;58.34;102457.03;5031213;28;8809;-64
2021/01/09 02:50:15;;;;;;;;;3.00;2.00;21.40;77.60;;;19.57;58.33;102448.41;5033559;28;8821;-64
2021/01/09 02:52:42;;;;;;;;;0.60;0.00;21.30;77.60;;;19.59;58.31;102461.66;5029579;28;8837;-64
2021/01/09 02:55:10;;;;;;;;;3.00;3.00;21.30;77.50;;;19.56;58.29;102457.41;5032021;28;8802;-64
2021/01/09 02:57:37;;;;;;;;;1.25;1.00;21.40;78.20;;;19.55;58.34;102463.75;5047549;28;9508;-64
2021/01/09 03:00:06;;;;;;;;;1.25;1.25;21.30;77.50;;;19.53;58.51;102461.16;5031996;28;8875;-64
2021/01/09 03:02:33;;;;;;;;;1.75;1.75;21.30;77.50;;;19.51;58.56;102467.63;5033277;28;8811;-64
2021/01/09 03:05:00;;;;;;;;;2.00;1.50;21.30;77.50;;;19.50;58.89;102457.88;5027883;28;9527;-65
2021/01/09 03:07:27;;;;;;;;;2.75;1.75;21.30;77.70;;;19.53;58.70;102460.31;5033784;28;8782;-64
2021/01/09 03:09:53;;;;;;;;;3.25;2.25;21.40;77.60;;;19.54;58.61;102459.38;5037078;28;8839;-65
2021/01/09 03:12:20;;;;;;;;;3.00;3.00;21.40;77.60;;;19.56;58.75;102460.06;5046951;28;8832;-65
2021/01/09 03:14:47;;;;;;;;;3.50;3.00;21.50;77.60;;;19.54;58.97;102462.03;5033329;28;8821;-66
2021/01/09 03:17:14;;;;;;;;;3.00;3.00;21.40;77.70;;;19.54;59.02;102454.00;5033866;28;8779;-65
2021/01/09 03:19:41;;;;;;;;;4.00;3.00;21.40;77.80;;;19.50;59.51;102456.06;5031235;28;8916;-66
2021/01/09 03:22:08;;;;;;;;;6.00;5.25;21.40;78.20;;;19.41;59.67;102455.91;5030737;28;8778;-65
2021/01/09 03:24:35;;;;;;;;;4.75;4.00;21.30;78.40;;;19.33;59.90;102458.31;5032406;28;8802;-65
2021/01/09 03:27:01;;;;;;;;;3.25;3.25;21.20;78.40;;;19.26;60.08;102460.63;5030832;28;8805;-65
2021/01/09 03:29:28;;;;;;;;;6.00;4.25;21.20;78.60;;;19.21;60.01;102460.97;5030681;28;8887;-65
2021/01/09 03:31:55;;;;;;;;;7.50;6.50;21.10;78.60;;;19.15;60.28;102455.22;5038784;28;8784;-65
2021/01/09 03:34:22;;;;;;;;;9.25;9.25;21.00;78.90;;;19.11;60.55;102453.72;5030900;28;8876;-65
2021/01/09 03:36:49;;;;;;;;;15.00;15.00;20.90;79.10;;;19.06;60.73;102456.78;5031067;28;8794;-65
2021/01/09 03:39:15;;;;;;;;;16.25;14.00;20.90;79.30;;;19.03;60.90;102457.88;5051875;28;9493;-65
2021/01/09 03:41:42;;;;;;;;;14.75;12.75;20.90;79.40;;;18.99;61.09;102456.38;5043566;28;8804;-65
2021/01/09 03:44:09;;;;;;;;;10.50;10.50;20.80;79.40;;;18.97;60.97;102457.47;5049953;28;8812;-65
2021/01/09 03:46:36;;;;;;;;;9.25;8.25;20.90;79.40;;;18.94;61.10;102468.41;5051192;28;8893;-65
2021/01/09 03:49:02;;;;;;;;;9.75;8.25;20.90;79.30;;;18.89;61.08;102465.22;5051676;28;8816;-65
2021/01/09 03:51:29;;;;;;;;;2.50;2.50;20.90;79.30;;;18.87;61.02;102466.19;5051822;28;8812;-65
2021/01/09 03:53:56;;;;;;;;;7.25;7.25;20.80;79.20;;;18.84;60.96;102473.59;5052488;28;8809;-65
2021/01/09 03:56:23;;;;;;;;;8.00;6.75;20.80;79.10;;;18.81;61.27;102477.34;5053902;28;8798;-65
2021/01/09 03:58:50;;;;;;;;;7.00;5.50;20.80;79.80;;;18.78;61.41;102480.28;5033484;28;8843;-65
2021/01/09 04:01:17;;;;;;;;;6.00;6.00;20.80;79.30;;;18.74;61.08;102472.53;5049487;28;8800;-65
2021/01/09 04:03:43;;;;;;;;;5.25;5.25;20.70;79.10;;;18.71;61.29;102468.28;5055268;28;8808;-65
2021/01/09 04:06:10;;;;;;;;;6.00;6.00;20.70;79.10;;;18.69;61.42;102464.00;5055376;28;8820;-65
2021/01/09 04:08:37;;;;;;;;;6.00;6.00;20.60;79.10;;;18.65;61.27;102474.94;5058291;28;8773;-65
2021/01/09 04:11:04;;;;;;;;;7.00;5.75;20.60;79.20;;;18.64;61.41;102469.69;5057726;28;8789;-65
2021/01/09 04:13:31;;;;;;;;;5.00;4.50;20.60;79.20;;;18.61;61.49;102472.59;5053959;28;8873;-65
2021/01/09 04:15:57;;;;;;;;;9.50;7.25;20.60;79.20;;;18.57;61.56;102471.97;5055754;28;8808;-65
2021/01/09 04:18:24;;;;;;;;;3.25;3.00;20.50;79.10;;;18.55;61.32;102473.06;5052872;28;8825;-65
2021/01/09 04:20:51;;;;;;;;;4.75;4.75;20.50;79.20;;;18.52;61.64;102481.28;5052357;28;8776;-65
2021/01/09 04:23:18;;;;;;;;;5.25;5.25;20.50;79.20;;;18.48;61.37;102477.13;5054626;28;8925;-65
2021/01/09 04:25:44;;;;;;;;;6.00;5.00;20.50;79.20;;;18.47;61.81;102481.63;5051970;28;8772;-65
2021/01/09 04:28:11;;;;;;;;;6.50;5.00;20.50;79.30;;;18.43;61.55;102485.50;5051057;28;8841;-65
2021/01/09 04:30:38;;;;;;;;;4.25;4.25;20.40;79.30;;;18.41;61.57;102485.59;5046943;28;8872;-65
2021/01/09 04:33:05;;;;;;;;;4.25;4.25;20.40;79.50;;;18.38;61.72;102483.13;5049955;28;8924;-65
2021/01/09 04:35:32;;;;;;;;;5.25;5.00;20.40;79.50;;;18.35;61.74;102483.38;5059271;28;8904;-65
2021/01/09 04:37:59;;;;;;;;;4.00;4.00;20.30;79.40;;;18.33;61.85;102479.94;5052833;28;8801;-65
2021/01/09 04:40:25;;;;;;;;;6.00;6.00;20.30;79.50;;;18.32;62.14;102482.72;5053749;28;8772;-65
2021/01/09 04:42:52;;;;;;;;;5.50;5.00;20.30;79.70;;;18.29;62.07;102490.97;5053396;28;8800;-65
2021/01/09 04:45:19;;;;;;;;;11.00;8.00;20.20;79.90;;;18.27;62.21;102493.78;5055755;28;9721;-65
2021/01/09 04:47:50;;;;;;;;;6.00;5.75;20.20;80.00;;;18.24;62.41;102491.28;5058161;28;8888;-65
2021/01/09 04:50:18;;;;;;;;;6.25;6.25;20.20;80.20;;;18.21;62.64;102495.03;5047674;28;8780;-65
2021/01/09 04:52:46;;;;;;;;;6.00;5.50;20.20;80.20;;;18.18;62.75;102497.94;5049368;28;8824;-65
2021/01/09 04:55:14;;;;;;;;;5.75;5.00;20.10;80.20;;;18.18;62.67;102507.78;5056155;28;9726;-65
2021/01/09 04:57:40;;;;;;;;;4.00;4.00;20.10;80.30;;;18.14;62.86;102511.63;5069995;28;8820;-65
2021/01/09 05:00:08;;;;;;;;;6.00;6.00;20.10;80.20;;;18.13;62.74;102507.25;5053232;28;9509;-64
2021/01/09 05:02:38;;;;;;;;;5.00;5.00;20.10;80.20;;;18.11;62.61;102512.72;5053218;28;8800;-65
2021/01/09 05:05:06;;;;;;;;;4.50;4.50;20.10;80.30;;;18.08;62.75;102526.31;5049589;28;8927;-65
2021/01/09 05:07:33;;;;;;;;;6.25;5.00;20.00;80.20;;;18.07;62.60;102518.41;5045324;28;8804;-65
2021/01/09 05:10:04;;;;;;;;;5.00;5.00;20.00;80.20;;;18.05;62.67;102517.66;5040567;28;8846;-65
2021/01/09 05:12:36;;;;;;;;;6.00;6.00;20.00;80.20;;;18.04;62.58;102521.28;5051194;28;8812;-65
2021/01/09 05:15:04;;;;;;;;;5.50;5.00;20.00;80.20;;;18.00;62.65;102526.00;5047549;28;8807;-65
2021/01/09 05:17:31;;;;;;;;;6.00;5.00;20.00;80.20;;;17.98;62.61;102519.88;5049963;28;8902;-65
2021/01/09 05:19:58;;;;;;;;;7.50;4.00;19.90;80.20;;;17.96;62.44;102520.00;5052807;28;8827;-65
2021/01/09 05:22:27;;;;;;;;;5.75;5.00;19.90;80.20;;;17.93;62.71;102517.53;5065001;28;8860;-65
2021/01/09 05:24:54;;;;;;;;;4.75;4.75;19.80;80.20;;;17.92;62.63;102520.31;5061771;28;8799;-65
2021/01/09 05:27:22;;;;;;;;;4.00;4.00;19.80;80.10;;;17.89;62.65;102528.56;5032684;28;8831;-65
2021/01/09 05:29:57;;;;;;;;;7.00;6.00;19.80;80.20;;;17.88;62.52;102526.84;5030033;28;8824;-65
2021/01/09 05:32:24;;;;;;;;;4.00;4.00;19.80;80.20;;;17.85;62.41;102532.41;5048106;28;8847;-65
2021/01/09 05:34:54;;;;;;;;;5.50;4.50;19.70;80.10;;;17.82;62.71;102522.78;5052170;28;8785;-65
2021/01/09 05:37:23;;;;;;;;;5.75;5.75;19.70;80.20;;;17.81;62.50;102521.09;5054273;28;8800;-65
2021/01/09 05:39:54;;;;;;;;;6.00;6.00;19.70;80.20;;;17.78;62.53;102519.44;5032950;28;8835;-65
2021/01/09 05:42:27;;;;;;;;;5.50;4.75;19.70;80.10;;;17.75;62.55;102522.31;5057544;28;8789;-65
2021/01/09 05:44:56;;;;;;;;;4.25;3.75;19.70;80.20;;;17.74;62.55;102531.28;5067250;28;8818;-65
2021/01/09 05:47:26;;;;;;;;;8.00;5.75;19.60;80.10;;;17.74;62.53;102530.44;5050955;28;8828;-65
2021/01/09 05:49:56;;;;;;;;;6.75;5.50;19.60;80.10;;;17.71;62.36;102530.66;5055558;28;8780;-65
2021/01/09 05:52:28;;;;;;;;;7.50;5.75;19.60;80.10;;;17.69;62.45;102532.56;5052637;28;8830;-65
2021/01/09 05:54:59;;;;;;;;;4.75;4.75;19.60;80.10;;;17.69;62.64;102521.88;5043504;28;8772;-65
2021/01/09 05:57:34;;;;;;;;;4.75;4.75;19.60;80.10;;;17.65;62.57;102515.03;5054186;28;8798;-65
2021/01/09 06:00:08;;;;;;;;;5.75;5.75;19.60;80.00;;;17.63;62.48;102523.16;5041063;28;8776;-65
2021/01/09 06:03:03;;;;;;;;;8.00;7.50;19.60;80.00;;;17.62;62.45;102516.09;5049212;28;9588;-65
2021/01/09 06:05:52;;;;;;;;;6.75;6.75;19.50;80.00;;;17.60;62.45;102520.69;5052780;28;8830;-65
2021/01/09 06:08:27;;;;;;;;;4.75;4.75;19.50;80.00;;;17.60;62.30;102522.50;5031846;28;8820;-65
2021/01/09 06:11:08;;;;;;;;;8.00;6.25;19.50;80.00;;;17.57;62.49;102518.22;5040184;28;8783;-65
2021/01/09 06:13:38;;;;;;;;;5.75;5.00;19.50;79.90;;;17.54;62.28;102510.41;5064735;28;8831;-65
2021/01/09 06:16:06;;;;;;;;;6.25;5.75;19.50;80.00;;;17.53;62.42;102512.25;5036314;28;8819;-65
2021/01/09 06:18:34;;;;;;;;;5.25;4.75;19.40;79.90;;;17.50;62.38;102511.56;5050686;28;8830;-65
2021/01/09 06:21:03;;;;;;;;;5.25;5.25;19.50;79.90;;;17.50;62.42;102508.91;5049906;28;8840;-65
2021/01/09 06:23:31;;;;;;;;;6.25;6.00;19.50;79.80;;;17.48;62.43;102514.38;5051927;28;8842;-65
2021/01/09 06:26:02;;;;;;;;;5.75;5.00;19.40;79.80;;;17.46;62.56;102513.63;5050743;28;8799;-65
2021/01/09 06:28:37;;;;;;;;;6.75;6.50;19.40;79.80;;;17.43;62.36;102516.50;5033015;28;8781;-65
2021/01/09 06:31:09;;;;;;;;;4.25;4.25;19.40;79.80;;;17.43;62.37;102528.97;5053719;28;8823;-65
2021/01/09 06:33:41;;;;;;;;;6.50;6.50;19.30;80.00;;;17.41;62.38;102531.78;5049973;28;8912;-65
2021/01/09 06:36:12;;;;;;;;;7.75;5.25;19.30;79.80;;;17.39;62.38;102541.69;5034979;28;8776;-65
2021/01/09 06:38:46;;;;;;;;;5.00;5.00;19.30;79.80;;;17.36;62.29;102536.56;5035644;28;8886;-65
2021/01/09 06:41:17;;;;;;;;;6.75;5.50;19.30;79.80;;;17.35;62.31;102530.38;5055878;28;8812;-65
2021/01/09 06:43:50;;;;;;;;;7.50;6.25;19.30;79.80;;;17.40;62.70;102539.88;5024730;28;8812;-63
2021/01/09 06:46:35;;;;;;;;;6.50;6.50;19.30;79.90;;;17.42;62.86;102549.50;5043753;28;8784;-62
2021/01/09 06:49:03;;;;;;;;;7.75;6.00;19.30;80.40;;;17.43;62.86;102532.53;5039177;28;9560;-61
2021/01/09 06:51:36;;;;;;;;;6.00;5.00;19.20;81.00;;;17.47;62.83;102543.84;5047936;28;8816;-62
2021/01/09 06:54:15;;;;;;;;;6.00;6.00;19.10;81.30;;;17.47;62.93;102538.50;5046558;28;8808;-62
2021/01/09 06:56:47;;;;;;;;;7.25;7.25;19.10;81.40;;;17.49;62.71;102534.78;5046146;28;8816;-63
2021/01/09 06:59:44;;;;;;;;;5.25;5.25;19.20;81.30;;;17.52;62.68;102542.56;5045422;28;8812;-63
2021/01/09 07:02:23;;;;;;;;;5.50;5.50;19.10;81.30;;;17.51;62.64;102534.69;5044514;28;9658;-65
2021/01/09 07:04:58;;;;;;;;;8.75;7.50;19.10;81.20;;;17.50;62.25;102544.53;5046180;28;8919;-65
2021/01/09 07:07:39;;;;;;;;;6.25;6.25;19.10;80.90;;;17.48;61.94;102540.25;5045763;28;8823;-65
2021/01/09 07:10:29;;;;;;;;;7.25;7.25;19.10;80.70;;;17.48;61.78;102541.09;5042595;28;8901;-65
2021/01/09 07:13:05;;;;;;;;;10.25;8.50;19.10;80.60;;;17.47;61.63;102533.16;5050063;28;8847;-65
2021/01/09 07:15:37;;;;;;;;;7.75;7.75;19.10;80.50;;;17.47;61.75;102531.34;5045713;28;8784;-67
2021/01/09 07:18:08;;;;;;;;;7.50;6.25;19.10;80.70;;;17.48;62.14;102545.59;5048939;28;8870;-66
2021/01/09 07:20:42;;;;;;;;;5.75;5.00;19.10;80.70;;;17.46;62.42;102532.31;5047610;28;9559;-66
2021/01/09 07:23:15;;;;;;;;;7.50;7.50;19.00;80.80;;;17.44;62.44;102526.22;5047983;28;8915;-66
2021/01/09 07:25:46;;;;;;;;;9.25;9.25;19.10;81.00;;;17.42;62.44;102528.13;5051829;28;8817;-66
2021/01/09 07:28:23;;;;;;;;;7.25;7.25;19.00;81.00;;;17.42;62.46;102541.47;5039059;28;8777;-66
2021/01/09 07:31:10;;;;;;;;;7.50;7.50;19.00;81.10;;;17.40;62.56;102539.88;5039992;28;8849;-66
2021/01/09 07:33:39;;;;;;;;;6.00;6.00;19.00;81.30;;;17.39;63.11;102533.69;5043832;28;9506;-65
2021/01/09 07:36:06;;;;;;;;;6.00;5.75;19.00;81.50;;;17.39;62.82;102524.81;5052516;28;8793;-65
2021/01/09 07:38:43;;;;;;;;;8.25;8.25;19.00;81.50;;;17.39;62.74;102533.69;5053298;28;8796;-65
2021/01/09 07:41:37;;;;;;;;;8.25;7.50;19.00;81.40;;;17.38;62.81;102531.09;5050473;28;8804;-65
2021/01/09 07:44:20;;;;;;;;;7.00;7.00;19.00;81.50;;;17.36;62.88;102529.41;5060072;28;8810;-65
2021/01/09 07:47:08;;;;;;;;;7.00;7.00;19.00;81.40;;;17.36;62.63;102521.38;5048858;28;8802;-65
2021/01/09 07:49:36;;;;;;;;;8.75;8.00;18.90;81.40;;;17.35;62.81;102518.81;5046712;28;8816;-65
2021/01/09 07:52:06;;;;;;;;;7.25;7.25;18.90;81.50;;;17.34;62.79;102512.63;5044025;28;8780;-65
2021/01/09 07:54:44;;;;;;;;;5.50;5.50;18.90;81.50;;;17.33;62.73;102512.75;5047374;28;8832;-65
2021/01/09 07:57:27;;;;;;;;;0.75;0.75;18.90;81.50;;;17.33;62.97;102518.09;5059391;28;9000;-66
2021/01/09 07:59:57;;;;;;;;;6.00;6.00;18.90;82.20;;;17.31;62.72;102509.31;5048242;28;8827;-66
2021/01/09 08:02:29;;;;;;;;;11.25;9.50;18.90;81.60;;;17.29;62.77;102517.41;5053423;28;8787;-65
2021/01/09 08:05:22;;;;;;;;;8.75;8.75;18.90;81.60;;;17.27;62.92;102518.47;5050035;28;8810;-65
2021/01/09 08:07:56;;;;;;;;;7.50;7.00;18.80;81.60;;;17.24;62.89;102506.19;5046231;28;8832;-65
2021/01/09 08:10:28;;;;;;;;;5.75;5.75;18.80;81.60;;;17.23;62.74;102503.63;5054621;28;8806;-65
2021/01/09 08:13:04;;;;;;;;;6.50;6.50;18.80;81.50;;;17.22;62.79;102499.22;5065112;28;8808;-65
2021/01/09 08:15:34;;;;;;;;;6.00;6.00;18.80;81.60;;;17.20;62.98;102504.69;5062620;28;8981;-65
2021/01/09 08:18:07;;;;;;;;;7.50;7.00;18.80;81.70;;;17.18;63.04;102501.25;5060602;28;8809;-66
2021/01/09 08:20:35;;;;;;;;;7.50;6.00;18.80;81.60;;;17.16;62.94;102500.50;5055862;28;8886;-66
2021/01/09 08:23:07;;;;;;;;;6.00;6.00;18.80;81.70;;;17.16;63.21;102500.50;5055651;28;9553;-66
2021/01/09 08:25:58;;;;;;;;;8.00;7.00;18.80;81.70;;;17.16;63.29;102502.31;5041406;28;8813;-65
2021/01/09 08:28:25;;;;;;;;;5.25;5.00;18.70;81.70;;;17.13;63.25;102498.88;5049687;28;8835;-66
2021/01/09 08:30:52;;;;;;;;;6.75;5.75;18.70;81.70;;;17.11;63.27;102495.47;5048723;28;9969;-65
2021/01/09 08:33:18;;;;;;;;;6.50;6.50;18.80;81.90;;;17.09;63.40;102505.38;5053613;28;8913;-65
2021/01/09 08:35:50;;;;;;;;;5.75;5.50;18.70;81.90;;;17.09;63.41;102524.06;5051088;28;9580;-65
2021/01/09 08:38:26;;;;;;;;;4.50;4.50;18.70;81.90;;;17.09;63.48;102525.88;5055549;28;8793;-65
2021/01/09 08:40:59;;;;;;;;;7.25;7.25;18.70;81.90;;;17.07;63.38;102523.34;5061994;28;8774;-65
2021/01/09 08:43:27;;;;;;;;;7.25;6.25;18.70;81.90;;;17.04;63.49;102534.19;5055176;28;8826;-66
2021/01/09 08:45:55;;;;;;;;;7.50;6.50;18.70;81.90;;;17.02;63.54;102533.47;5061412;28;8890;-65
2021/01/09 08:48:34;;;;;;;;;7.25;7.25;18.70;81.90;;;17.03;63.53;102539.66;5057111;28;8819;-65
2021/01/09 08:51:05;;;;;;;;;7.75;7.25;18.60;81.90;;;17.01;63.54;102529.06;5044549;28;8858;-66
2021/01/09 08:54:06;;;;;;;;;5.50;5.50;18.60;81.90;;;16.99;63.53;102517.63;5071135;28;8955;-66
2021/01/09 08:56:34;;;;;;;;;7.25;7.00;18.60;81.90;;;16.99;63.57;102522.97;5084642;28;8809;-66
2021/01/09 08:59:05;;;;;;;;;7.50;6.75;18.60;81.90;;;16.96;63.71;102512.50;5063203;28;8808;-66
2021/01/09 09:01:44;;;;;;;;;6.50;6.50;18.70;82.00;;;16.95;63.77;102523.28;5055166;28;8800;-66
2021/01/09 09:04:12;;;;;;;;;7.50;7.00;18.60;82.00;;;16.92;63.78;102522.53;5074482;28;8828;-65
2021/01/09 09:06:44;;;;;;;;;5.25;4.50;18.60;82.10;;;16.92;63.61;102511.84;5057803;28;8790;-65
2021/01/09 09:09:16;;;;;;;;;4.50;3.75;18.60;81.90;;;16.91;63.74;102512.78;5070804;28;8840;-65
2021/01/09 09:11:50;;;;;;;;;6.50;5.50;18.60;82.00;;;16.88;63.90;102518.34;5051625;28;8909;-65
2021/01/09 09:14:18;;;;;;;;;7.75;7.75;18.60;82.00;;;16.90;63.83;102520.91;5036342;28;8801;-65
2021/01/09 09:16:45;;;;;;;;;8.00;8.00;18.60;82.10;;;16.88;63.81;102514.81;5053001;28;8808;-65
2021/01/09 09:19:17;;;;;;;;;7.00;6.25;18.50;82.10;;;16.86;63.84;102511.38;5054611;28;8796;-66
2021/01/09 09:21:49;;;;;;;;;7.50;7.50;18.50;82.10;;;16.85;64.05;102510.53;5054745;28;8876;-65
2021/01/09 09:24:17;;;;;;;;;6.25;5.50;18.50;82.10;;;16.83;64.19;102501.75;5037560;28;8784;-65
2021/01/09 09:26:44;;;;;;;;;5.50;5.25;18.50;82.30;;;16.83;64.33;102495.56;5053776;28;8897;-65
2021/01/09 09:29:16;;;;;;;;;6.75;5.75;18.50;82.30;;;16.82;64.27;102500.06;5054370;28;8803;-65
2021/01/09 09:31:44;;;;;;;;;7.00;7.00;18.50;82.30;;;16.79;64.38;102500.28;5054509;28;9485;-65
2021/01/09 09:34:15;;;;;;;;;7.25;7.25;18.50;82.40;;;16.79;64.30;102494.94;5054806;28;8949;-65
2021/01/09 09:37:02;;;;;;;;;5.75;5.75;18.50;82.50;;;16.78;64.35;102492.34;5053927;28;9516;-65
2021/01/09 09:39:34;;;;;;;;;6.75;6.75;18.40;82.50;;;16.78;64.39;102498.53;5038686;28;8889;-65
2021/01/09 09:42:03;;;;;;;;;5.25;5.25;18.40;82.50;;;16.77;64.50;102495.94;5069299;28;8819;-65
2021/01/09 09:44:44;;;;;;;;;7.50;7.50;18.40;82.50;;;16.75;64.54;102487.19;5054423;28;8945;-65
2021/01/09 09:47:29;;;;;;;;;5.50;5.50;18.40;82.60;;;16.74;64.45;102491.66;5054288;28;8834;-65
2021/01/09 09:50:00;;;;;;;;;8.00;7.00;18.40;82.50;;;16.74;64.40;102496.13;5053759;28;8834;-65
2021/01/09 09:52:27;;;;;;;;;5.75;5.75;18.40;82.50;;;16.72;64.42;102488.25;5054068;28;8794;-65
2021/01/09 09:55:09;;;;;;;;;7.25;7.25;18.40;82.50;;;16.72;64.32;102498.91;5054261;28;8777;-65
2021/01/09 09:57:36;;;;;;;;;10.00;9.00;18.40;82.50;;;16.69;64.47;102499.97;5053391;28;8784;-65
2021/01/09 10:00:12;;;;;;;;;5.50;5.50;18.40;82.50;;;16.70;64.65;102503.50;5053887;28;8968;-65
2021/01/09 10:02:53;;;;;;;;;5.25;5.25;18.40;82.60;;;16.67;64.59;102493.88;5040753;28;8854;-65
2021/01/09 10:05:21;;;;;;;;;8.00;7.00;18.40;82.60;;;16.65;64.59;102490.44;5053704;28;9492;-65
2021/01/09 10:07:48;;;;;;;;;5.00;5.00;18.30;82.60;;;16.66;64.72;102491.28;5054048;28;8804;-65
2021/01/09 10:10:20;;;;;;;;;6.75;6.75;18.30;82.60;;;16.65;64.68;102493.09;5053581;28;8774;-65
2021/01/09 10:12:57;;;;;;;;;7.75;7.75;18.30;82.60;;;16.64;64.66;102503.91;5053463;28;8833;-65
2021/01/09 10:15:25;;;;;;;;;6.00;6.00;18.30;82.60;;;16.61;64.63;102494.28;5053570;28;9542;-65
2021/01/09 10:18:02;;;;;;;;;4.50;4.50;18.30;82.60;;;16.61;64.66;102512.97;5053618;28;8793;-65
2021/01/09 10:20:30;;;;;;;;;8.75;8.00;18.30;82.60;;;16.59;64.54;102505.97;5039365;28;8801;-65
2021/01/09 10:22:57;;;;;;;;;7.50;7.50;18.30;82.60;;;16.60;64.61;102505.88;5053909;28;8801;-66
2021/01/09 10:25:23;;;;;;;;;6.50;6.50;18.30;82.50;;;16.57;64.62;102495.41;5053765;28;8797;-67
2021/01/09 10:27:51;;;;;;;;;6.50;6.25;18.30;82.60;;;16.58;64.58;102513.13;5053581;28;8885;-65
2021/01/09 10:30:19;;;;;;;;;6.25;6.00;18.20;82.50;;;16.56;64.56;102512.38;5052244;28;8824;-65
2021/01/09 10:32:46;;;;;;;;;7.00;6.67;18.20;82.50;;;16.57;64.56;102516.75;5053537;28;8820;-65